University, MS

3:02 PM CDT on August 30, 2015 (GMT -0500)
University-Oxford | | Change Station
CLOSE
Current Station
Airport
Location: Oxford,
Elevation: 453 ft
Nearby Weather Stations

Elev 453 ft 34.38 °N, 89.54 °W | Updated 7 minutes ago

Partly Cloudy
Partly Cloudy
84 °F
Feels Like 87 °F
N
5
Wind Variable Wind from ENE

Today
High -- | Low -- °F
--% Chance of Precip.
Yesterday
High -- | Low -- °F
Precip. -- in
6:29 AM 7:27 PM
Full, 98% visible
Pressure 30.04 in
Visibility 10.0 miles
Clouds Scattered Clouds 4400 ft
Scattered Clouds 6000 ft
Heat Index 87 °F
Dew Point 66 °F
Humidity 55%
Rainfall 0.00 in
Snow Depth Not available.
UV 7 out of 12
Pollen 8.40 out of 12
Air Quality Not available.
Flu Activity Not available.
METAR KUOX 301955Z AUTO 07004KT 10SM SCT044 SCT060 29/19 A3004 RMK AO2 PWINO PNO
Pressure 30.04 in
Visibility 10.0 miles
Clouds Scattered Clouds 4400 ft
Scattered Clouds 6000 ft
Heat Index 87 °F
Dew Point 66 °F
Humidity 55%
Rainfall 0.00 in
Snow Depth Not available.
UV 7 out of 12
Pollen 8.40 out of 12
Air Quality Not available.
Flu Activity Not available.
METAR KUOX 301955Z AUTO 07004KT 10SM SCT044 SCT060 29/19 A3004 RMK AO2 PWINO PNO

10-Day Weather Forecast

×

Almanac

Astronomy

Aug. 30, 2015 Rise Set
Actual Time
Civil Twilight
Nautical Twilight
Astronomical Twilight
Moon
Length of Visible Light
Length of Day
Tomorrow will be .
, % of the Moon is Illuminated

Today's Extremes

State Highs State Lows

Community

WunderPhotos

Upload Photos

1,851,048 photos uploaded!

WunderBlogs® & News

Nearby

Air Quality

  Air Quality AQ Index Pollutant
Not available.

Snow Depth

Station Depth Elevation

Earthquake Activity

City Distance Mag. Time & Date
Minimum magnitude displayed is 2.5.

Coastal Water Temperatures

Place Temperature

Stations

Nearby Weather Stations

Station Location Temp. Windchill Dew Point Humidity Wind Precip. Elev Updated Type